Time;durP1;ratioP1;P1;durP2;ratioP2;P2;SDS_P1;SDS_P2;PMS_P1;PMS_P2;Temp;Humidity;BMP_temperature;BMP_pressure;BME280_temperature;BME280_humidity;BME280_pressure;Samples;Min_cycle;Max_cycle;Signal;HPM_P1;HPM_P2
2023/03/24 00:01:55;;;;;;;6.07;4.10;;;;;;;;;;6046846;23;20030;-77
2023/03/24 00:04:23;;;;;;;4.20;3.28;;;;;;;;;;6047394;23;20026;-79
2023/03/24 00:06:51;;;;;;;5.65;3.65;;;;;;;;;;6046458;23;20030;-77
2023/03/24 00:09:18;;;;;;;6.78;3.25;;;;;;;;;;6070378;23;20027;-79
2023/03/24 00:11:44;;;;;;;3.88;3.22;;;;;;;;;;6069401;23;20097;-78
2023/03/24 00:14:11;;;;;;;6.53;3.20;;;;;;;;;;6047073;23;20108;-78
2023/03/24 00:16:41;;;;;;;4.65;3.03;;;;;;;;;;6047751;23;20085;-78
2023/03/24 00:19:09;;;;;;;6.50;2.92;;;;;;;;;;6070405;23;20034;-79
2023/03/24 00:21:36;;;;;;;5.22;3.17;;;;;;;;;;6070264;23;20025;-79
2023/03/24 00:24:04;;;;;;;3.85;2.60;;;;;;;;;;6047074;23;20037;-79
2023/03/24 00:26:31;;;;;;;3.15;2.38;;;;;;;;;;6046995;23;20029;-80
2023/03/24 00:28:58;;;;;;;3.58;2.35;;;;;;;;;;6047422;23;20037;-79
2023/03/24 00:31:25;;;;;;;2.17;1.98;;;;;;;;;;6046591;23;20058;-78
2023/03/24 00:33:52;;;;;;;3.35;2.38;;;;;;;;;;6047130;23;20023;-79
2023/03/24 00:36:21;;;;;;;3.00;2.03;;;;;;;;;;6048147;23;20025;-80
2023/03/24 00:38:49;;;;;;;4.88;2.42;;;;;;;;;;6047483;23;20032;-79
2023/03/24 00:41:18;;;;;;;4.78;2.20;;;;;;;;;;6047061;23;20026;-78
2023/03/24 00:43:47;;;;;;;2.95;2.25;;;;;;;;;;6046993;23;20019;-79
2023/03/24 00:46:26;;;;;;;2.60;2.15;;;;;;;;;;6046147;23;20097;-78
2023/03/24 00:49:01;;;;;;;3.97;2.38;;;;;;;;;;6070109;23;20018;-79
2023/03/24 00:51:36;;;;;;;3.13;2.30;;;;;;;;;;6045865;23;20033;-78
2023/03/24 00:54:04;;;;;;;3.08;1.90;;;;;;;;;;6046896;23;20026;-78
2023/03/24 00:56:32;;;;;;;2.58;1.95;;;;;;;;;;6072090;23;20050;-78
2023/03/24 00:59:01;;;;;;;3.60;1.85;;;;;;;;;;6048691;23;20030;-79
2023/03/24 01:01:31;;;;;;;2.45;2.05;;;;;;;;;;6048033;23;20048;-79
2023/03/24 01:03:59;;;;;;;4.25;1.92;;;;;;;;;;6048450;23;20026;-79
2023/03/24 01:06:26;;;;;;;3.20;1.83;;;;;;;;;;6047945;23;20469;-78
2023/03/24 01:08:53;;;;;;;3.05;1.60;;;;;;;;;;6047533;23;20057;-78
2023/03/24 01:11:21;;;;;;;3.83;1.90;;;;;;;;;;6048113;23;20098;-79
2023/03/24 01:13:49;;;;;;;2.10;1.77;;;;;;;;;;6075652;23;20586;-81
2023/03/24 01:16:16;;;;;;;2.13;1.92;;;;;;;;;;6052918;23;20030;-80
2023/03/24 01:18:44;;;;;;;2.05;1.83;;;;;;;;;;6052386;23;20044;-80
2023/03/24 01:21:11;;;;;;;2.85;1.73;;;;;;;;;;6074026;23;20353;-79
2023/03/24 01:23:40;;;;;;;2.22;1.80;;;;;;;;;;6047809;23;20373;-77
2023/03/24 01:26:09;;;;;;;2.53;1.80;;;;;;;;;;6048089;23;20026;-78
2023/03/24 01:28:39;;;;;;;1.63;1.50;;;;;;;;;;6071335;23;20029;-78
2023/03/24 01:31:08;;;;;;;2.42;1.80;;;;;;;;;;6071786;23;20028;-78
2023/03/24 01:33:36;;;;;;;1.70;1.60;;;;;;;;;;6070906;23;20029;-78
2023/03/24 01:36:04;;;;;;;1.77;1.50;;;;;;;;;;6047271;23;20045;-77
2023/03/24 01:38:32;;;;;;;2.15;1.60;;;;;;;;;;6070894;23;20461;-77
2023/03/24 01:40:58;;;;;;;1.80;1.65;;;;;;;;;;6046813;23;20026;-78
2023/03/24 01:43:30;;;;;;;4.82;1.60;;;;;;;;;;6047058;23;20118;-77
2023/03/24 01:46:02;;;;;;;2.78;1.77;;;;;;;;;;6047219;23;20041;-79
2023/03/24 01:48:51;;;;;;;3.63;1.80;;;;;;;;;;6048171;23;20522;-78
2023/03/24 01:51:22;;;;;;;2.45;1.90;;;;;;;;;;6070737;23;20106;-78
2023/03/24 01:54:06;;;;;;;4.25;2.10;;;;;;;;;;6072434;23;20037;-79
2023/03/24 01:56:37;;;;;;;3.22;2.10;;;;;;;;;;6048195;23;20074;-78
2023/03/24 01:59:13;;;;;;;2.42;2.13;;;;;;;;;;6048675;23;20026;-79
2023/03/24 02:01:40;;;;;;;4.03;2.45;;;;;;;;;;6071468;23;20023;-79
2023/03/24 02:04:07;;;;;;;4.22;2.53;;;;;;;;;;6048042;23;20019;-79
2023/03/24 02:06:39;;;;;;;3.97;2.22;;;;;;;;;;6047800;23;20022;-79
2023/03/24 02:09:07;;;;;;;2.40;1.98;;;;;;;;;;6071828;23;20033;-79
2023/03/24 02:11:35;;;;;;;3.85;2.22;;;;;;;;;;6048118;23;20081;-79
2023/03/24 02:14:03;;;;;;;2.63;2.30;;;;;;;;;;6048141;23;20419;-79
2023/03/24 02:16:40;;;;;;;6.82;2.75;;;;;;;;;;6048518;23;20097;-79
2023/03/24 02:19:43;;;;;;;2.83;2.10;;;;;;;;;;6071188;23;20026;-78
2023/03/24 02:22:34;;;;;;;3.90;2.60;;;;;;;;;;6070877;23;20033;-79
2023/03/24 02:25:42;;;;;;;3.55;2.80;;;;;;;;;;6070789;23;20064;-77
2023/03/24 02:28:30;;;;;;;4.63;2.58;;;;;;;;;;6093926;23;20030;-77
2023/03/24 02:31:33;;;;;;;5.45;2.85;;;;;;;;;;6069447;23;20097;-77
2023/03/24 02:34:09;;;;;;;7.18;3.00;;;;;;;;;;6042410;23;20041;-76
2023/03/24 02:36:58;;;;;;;3.70;2.60;;;;;;;;;;6069701;23;20090;-76
2023/03/24 02:39:28;;;;;;;3.97;2.25;;;;;;;;;;6070922;23;20406;-79
2023/03/24 02:42:06;;;;;;;5.10;2.20;;;;;;;;;;6070624;23;20027;-78
2023/03/24 02:44:40;;;;;;;3.50;2.00;;;;;;;;;;6070611;23;20023;-78
2023/03/24 02:47:39;;;;;;;4.80;2.60;;;;;;;;;;6048280;23;20401;-77
2023/03/24 02:50:34;;;;;;;2.83;1.92;;;;;;;;;;6072586;23;20094;-78
2023/03/24 02:53:12;;;;;;;4.85;2.60;;;;;;;;;;6070875;23;20097;-78
2023/03/24 02:56:00;;;;;;;3.00;2.20;;;;;;;;;;6047691;23;20049;-78
2023/03/24 02:58:50;;;;;;;2.80;1.98;;;;;;;;;;6070471;23;20026;-77
2023/03/24 03:01:30;;;;;;;1.67;1.40;;;;;;;;;;6070861;23;20104;-78
2023/03/24 03:04:02;;;;;;;2.58;1.70;;;;;;;;;;6047616;23;20027;-77
2023/03/24 03:06:33;;;;;;;3.58;2.00;;;;;;;;;;6046379;23;20026;-77
2023/03/24 03:09:06;;;;;;;3.25;1.80;;;;;;;;;;6046652;23;20022;-77
2023/03/24 03:11:33;;;;;;;2.95;1.80;;;;;;;;;;6045956;23;20096;-77
2023/03/24 03:14:14;;;;;;;3.05;1.92;;;;;;;;;;6046177;23;20465;-77
2023/03/24 03:16:44;;;;;;;2.65;1.85;;;;;;;;;;6067904;23;20018;-78
2023/03/24 03:19:22;;;;;;;2.08;1.80;;;;;;;;;;6069559;23;20022;-77
2023/03/24 03:21:49;;;;;;;2.38;1.88;;;;;;;;;;6046327;23;20461;-77
2023/03/24 03:24:31;;;;;;;3.35;1.90;;;;;;;;;;6070727;23;20022;-77
2023/03/24 03:27:01;;;;;;;3.17;1.83;;;;;;;;;;6070189;23;20044;-77
2023/03/24 03:29:33;;;;;;;2.70;1.92;;;;;;;;;;6048444;23;20105;-76
2023/03/24 03:32:06;;;;;;;2.83;1.80;;;;;;;;;;6048724;23;20022;-77
2023/03/24 03:34:54;;;;;;;2.70;1.70;;;;;;;;;;6048806;23;20030;-76
2023/03/24 03:37:36;;;;;;;2.67;1.77;;;;;;;;;;6071972;23;20022;-78
2023/03/24 03:40:12;;;;;;;1.95;1.40;;;;;;;;;;6072558;23;20026;-77
2023/03/24 03:42:38;;;;;;;4.10;1.70;;;;;;;;;;6046401;23;20033;-78
2023/03/24 03:45:09;;;;;;;2.97;1.90;;;;;;;;;;6046872;23;20029;-78
2023/03/24 03:47:35;;;;;;;4.03;1.50;;;;;;;;;;6046641;23;20018;-78
2023/03/24 03:50:03;;;;;;;2.53;1.60;;;;;;;;;;6046537;23;20026;-77
2023/03/24 03:52:30;;;;;;;3.08;1.95;;;;;;;;;;6046077;23;20093;-77
2023/03/24 03:54:57;;;;;;;1.63;1.52;;;;;;;;;;6050207;23;20091;-76
2023/03/24 03:57:24;;;;;;;1.60;1.50;;;;;;;;;;6075366;23;20017;-76
2023/03/24 03:59:51;;;;;;;2.63;1.52;;;;;;;;;;6069589;23;20018;-77
2023/03/24 04:02:37;;;;;;;1.60;1.30;;;;;;;;;;6045056;23;20026;-78
2023/03/24 04:05:13;;;;;;;2.83;1.70;;;;;;;;;;6045822;23;20374;-77
2023/03/24 04:08:03;;;;;;;2.85;1.70;;;;;;;;;;6069202;23;20044;-76
2023/03/24 04:10:53;;;;;;;2.40;1.48;;;;;;;;;;6068800;23;20022;-75
2023/03/24 04:13:41;;;;;;;7.55;2.17;;;;;;;;;;6067167;23;20699;-78
2023/03/24 04:16:08;;;;;;;3.28;1.67;;;;;;;;;;6067929;23;20125;-78
2023/03/24 04:19:06;;;;;;;2.33;1.75;;;;;;;;;;6068441;23;20077;-79
2023/03/24 04:22:05;;;;;;;2.60;1.52;;;;;;;;;;6069118;23;20022;-79
2023/03/24 04:25:13;;;;;;;2.70;1.30;;;;;;;;;;6069976;23;20026;-78
2023/03/24 04:28:13;;;;;;;2.03;1.58;;;;;;;;;;6070156;23;20436;-79
2023/03/24 04:30:54;;;;;;;1.83;1.20;;;;;;;;;;6071744;23;20022;-80
2023/03/24 04:33:37;;;;;;;3.53;1.55;;;;;;;;;;6048725;23;20030;-78
2023/03/24 04:36:17;;;;;;;2.85;1.63;;;;;;;;;;6072163;23;20352;-80
2023/03/24 04:38:55;;;;;;;3.88;1.38;;;;;;;;;;6049075;23;20075;-78
2023/03/24 04:41:25;;;;;;;3.67;1.52;;;;;;;;;;6071294;23;20022;-78
2023/03/24 04:43:56;;;;;;;2.53;1.40;;;;;;;;;;6071981;23;20022;-79
2023/03/24 04:46:24;;;;;;;2.58;1.48;;;;;;;;;;6049523;23;20029;-78
2023/03/24 04:48:57;;;;;;;1.83;1.50;;;;;;;;;;6049720;23;20018;-79
2023/03/24 04:51:27;;;;;;;2.75;1.52;;;;;;;;;;6072105;23;20489;-77
2023/03/24 04:54:03;;;;;;;3.00;1.48;;;;;;;;;;6072672;23;20022;-79
2023/03/24 04:56:47;;;;;;;3.83;1.60;;;;;;;;;;6049230;23;20414;-77
2023/03/24 04:59:17;;;;;;;2.33;1.95;;;;;;;;;;6049288;23;20042;-79
2023/03/24 05:01:48;;;;;;;1.58;1.38;;;;;;;;;;6049739;23;20026;-79
2023/03/24 05:04:25;;;;;;;6.45;1.52;;;;;;;;;;6050008;23;20042;-79
2023/03/24 05:07:06;;;;;;;1.75;1.40;;;;;;;;;;6049679;23;20468;-80
2023/03/24 05:09:39;;;;;;;2.80;1.73;;;;;;;;;;6073952;23;20026;-79
2023/03/24 05:12:14;;;;;;;2.92;1.80;;;;;;;;;;6052659;23;20031;-79
2023/03/24 05:14:42;;;;;;;2.72;1.70;;;;;;;;;;6054831;23;20030;-80
2023/03/24 05:17:15;;;;;;;4.40;2.00;;;;;;;;;;6055200;23;20029;-80
2023/03/24 05:19:46;;;;;;;2.92;1.80;;;;;;;;;;6073998;23;20082;-80
2023/03/24 05:22:13;;;;;;;3.90;1.30;;;;;;;;;;6075039;23;20371;-80
2023/03/24 05:24:41;;;;;;;1.45;1.30;;;;;;;;;;6050261;23;20026;-80
2023/03/24 05:27:11;;;;;;;2.90;1.30;;;;;;;;;;6050504;23;20034;-79
2023/03/24 05:29:45;;;;;;;2.38;1.17;;;;;;;;;;6052709;23;20497;-80
2023/03/24 05:32:12;;;;;;;1.58;1.35;;;;;;;;;;6050808;23;20027;-78
2023/03/24 05:34:43;;;;;;;2.45;1.63;;;;;;;;;;6051060;23;20022;-78
2023/03/24 05:37:13;;;;;;;1.80;1.42;;;;;;;;;;6050915;23;20465;-78
2023/03/24 05:39:40;;;;;;;2.47;2.22;;;;;;;;;;6073823;23;20023;-77
2023/03/24 05:42:11;;;;;;;3.70;1.33;;;;;;;;;;6048778;23;20093;-78
2023/03/24 05:44:41;;;;;;;3.78;1.77;;;;;;;;;;6050185;23;20556;-78
2023/03/24 05:47:09;;;;;;;3.22;2.38;;;;;;;;;;6050328;23;20022;-77
2023/03/24 05:49:36;;;;;;;3.33;2.05;;;;;;;;;;6048576;23;20022;-77
2023/03/24 05:52:08;;;;;;;4.13;2.30;;;;;;;;;;6041870;23;20026;-78
2023/03/24 05:54:40;;;;;;;2.75;2.00;;;;;;;;;;6050104;23;20364;-79
2023/03/24 05:57:23;;;;;;;3.22;2.45;;;;;;;;;;6049010;23;20034;-78
2023/03/24 06:00:00;;;;;;;3.17;1.70;;;;;;;;;;6073478;23;20029;-79
2023/03/24 06:02:34;;;;;;;4.57;2.00;;;;;;;;;;6072528;23;20026;-77
2023/03/24 06:05:07;;;;;;;3.30;2.15;;;;;;;;;;6069453;23;20820;-76
2023/03/24 06:07:44;;;;;;;4.22;2.03;;;;;;;;;;6047415;23;20029;-78
2023/03/24 06:10:18;;;;;;;3.50;2.40;;;;;;;;;;6053193;23;20102;-79
2023/03/24 06:12:47;;;;;;;4.72;2.30;;;;;;;;;;6049909;23;20022;-77
2023/03/24 06:15:16;;;;;;;2.30;1.98;;;;;;;;;;6049724;23;20018;-79
2023/03/24 06:17:48;;;;;;;5.60;2.65;;;;;;;;;;6071015;23;20026;-79
2023/03/24 06:20:19;;;;;;;2.65;2.15;;;;;;;;;;6071349;23;20019;-79
2023/03/24 06:22:50;;;;;;;2.78;2.20;;;;;;;;;;6070732;23;20029;-77
2023/03/24 06:25:25;;;;;;;7.20;2.22;;;;;;;;;;6071732;23;20562;-77
2023/03/24 06:27:52;;;;;;;3.85;2.08;;;;;;;;;;6071518;23;20122;-72
2023/03/24 06:30:21;;;;;;;4.55;2.10;;;;;;;;;;6068628;23;20023;-73
2023/03/24 06:32:51;;;;;;;4.25;2.38;;;;;;;;;;6047290;23;20073;-78
2023/03/24 06:35:20;;;;;;;3.40;2.50;;;;;;;;;;6047468;23;20508;-77
2023/03/24 06:37:50;;;;;;;3.35;2.15;;;;;;;;;;6046486;23;20057;-77
2023/03/24 06:40:18;;;;;;;3.35;1.88;;;;;;;;;;6047313;23;20030;-78
2023/03/24 06:42:48;;;;;;;2.65;2.15;;;;;;;;;;6048370;23;20030;-77
2023/03/24 06:45:23;;;;;;;3.40;2.20;;;;;;;;;;6049100;23;20022;-78
2023/03/24 06:47:56;;;;;;;4.95;2.30;;;;;;;;;;6049553;23;20331;-77
2023/03/24 06:50:33;;;;;;;2.38;2.10;;;;;;;;;;6048770;23;20029;-78
2023/03/24 06:53:01;;;;;;;3.45;2.20;;;;;;;;;;6050172;23;20068;-78
2023/03/24 06:55:29;;;;;;;2.65;2.25;;;;;;;;;;6049357;23;20033;-78
2023/03/24 06:57:57;;;;;;;2.55;2.20;;;;;;;;;;6048778;23;20018;-77
2023/03/24 07:00:31;;;;;;;3.33;2.28;;;;;;;;;;6048764;23;20356;-78
2023/03/24 07:03:01;;;;;;;4.07;2.38;;;;;;;;;;6073696;23;20030;-78
2023/03/24 07:06:08;;;;;;;4.15;2.22;;;;;;;;;;6056402;23;20032;-78
2023/03/24 07:08:52;;;;;;;3.03;2.53;;;;;;;;;;6079427;23;20074;-78
2023/03/24 07:11:22;;;;;;;3.25;2.53;;;;;;;;;;6070130;23;20030;-76
2023/03/24 07:13:51;;;;;;;4.15;2.20;;;;;;;;;;6073469;23;20095;-75
2023/03/24 07:16:26;;;;;;;3.53;2.13;;;;;;;;;;6096145;23;20026;-76
2023/03/24 07:19:04;;;;;;;2.70;1.70;;;;;;;;;;6071952;23;20018;-76
2023/03/24 07:21:32;;;;;;;2.00;1.75;;;;;;;;;;6073295;23;20014;-76
2023/03/24 07:24:03;;;;;;;3.53;2.50;;;;;;;;;;6075024;23;20058;-76
2023/03/24 07:26:33;;;;;;;2.92;2.00;;;;;;;;;;6073738;23;20023;-77
2023/03/24 07:29:00;;;;;;;3.40;2.20;;;;;;;;;;6096472;23;20018;-76
2023/03/24 07:31:28;;;;;;;3.55;2.25;;;;;;;;;;6072419;23;20006;-76
2023/03/24 07:34:07;;;;;;;3.97;2.90;;;;;;;;;;6070770;23;20014;-76
2023/03/24 07:36:41;;;;;;;2.70;1.80;;;;;;;;;;6068445;23;20014;-78
2023/03/24 07:39:08;;;;;;;2.55;2.35;;;;;;;;;;6045892;23;20029;-76
2023/03/24 07:41:36;;;;;;;2.78;2.05;;;;;;;;;;6043842;23;20503;-76
2023/03/24 07:44:04;;;;;;;3.03;2.08;;;;;;;;;;6043819;23;20598;-76
2023/03/24 07:46:32;;;;;;;2.42;1.90;;;;;;;;;;6043867;23;20398;-76
2023/03/24 07:49:01;;;;;;;4.65;2.67;;;;;;;;;;6044386;23;20028;-77
2023/03/24 07:51:42;;;;;;;4.30;2.90;;;;;;;;;;6049658;23;20034;-77
2023/03/24 07:54:10;;;;;;;3.15;2.67;;;;;;;;;;6068606;23;20026;-77
2023/03/24 07:56:38;;;;;;;3.35;2.40;;;;;;;;;;6045509;23;20029;-77
2023/03/24 07:59:09;;;;;;;3.03;2.33;;;;;;;;;;6069978;23;20026;-76
2023/03/24 08:01:37;;;;;;;3.53;2.30;;;;;;;;;;6047082;23;20077;-77
2023/03/24 08:04:06;;;;;;;4.75;2.80;;;;;;;;;;6047468;23;20053;-76
2023/03/24 08:06:38;;;;;;;2.78;2.33;;;;;;;;;;6049140;23;20034;-80
2023/03/24 08:09:06;;;;;;;3.88;2.65;;;;;;;;;;6052150;23;20528;-79
2023/03/24 08:11:35;;;;;;;4.07;3.13;;;;;;;;;;6048236;23;20032;-78
2023/03/24 08:14:03;;;;;;;3.85;2.45;;;;;;;;;;6045866;23;20026;-72
2023/03/24 08:16:33;;;;;;;3.17;1.95;;;;;;;;;;6043799;23;20026;-76
2023/03/24 08:19:03;;;;;;;5.10;2.58;;;;;;;;;;6069760;23;20453;-77
2023/03/24 08:21:32;;;;;;;2.30;1.83;;;;;;;;;;6045188;23;20105;-77
2023/03/24 08:23:59;;;;;;;3.45;2.03;;;;;;;;;;6068508;23;20105;-78
2023/03/24 08:26:34;;;;;;;3.45;2.67;;;;;;;;;;6045942;23;20037;-78
2023/03/24 08:29:02;;;;;;;3.28;2.97;;;;;;;;;;6038399;23;20030;-76
2023/03/24 08:31:32;;;;;;;3.58;2.70;;;;;;;;;;6044424;23;20037;-76
2023/03/24 08:34:03;;;;;;;3.65;2.42;;;;;;;;;;6043408;23;20090;-77
2023/03/24 08:36:33;;;;;;;3.28;2.35;;;;;;;;;;6043841;23;20100;-77
2023/03/24 08:39:14;;;;;;;3.13;2.55;;;;;;;;;;6070185;23;20445;-78
2023/03/24 08:41:54;;;;;;;2.95;2.65;;;;;;;;;;6043226;23;20022;-78
2023/03/24 08:44:26;;;;;;;4.88;2.72;;;;;;;;;;6046714;23;20053;-78
2023/03/24 08:46:56;;;;;;;3.35;2.50;;;;;;;;;;6093000;23;20032;-78
2023/03/24 08:49:42;;;;;;;3.03;2.42;;;;;;;;;;6050863;23;20052;-78
2023/03/24 08:52:12;;;;;;;5.68;2.60;;;;;;;;;;6046326;23;20058;-78
2023/03/24 08:54:39;;;;;;;3.22;2.35;;;;;;;;;;6045555;23;20069;-78
2023/03/24 08:57:20;;;;;;;3.72;2.50;;;;;;;;;;6047114;23;20078;-78
2023/03/24 08:59:48;;;;;;;3.70;2.38;;;;;;;;;;6047704;23;20400;-78
2023/03/24 09:02:26;;;;;;;3.20;1.90;;;;;;;;;;6047684;23;20037;-78
2023/03/24 09:04:58;;;;;;;2.85;2.10;;;;;;;;;;6069729;23;20811;-78
2023/03/24 09:07:32;;;;;;;4.82;2.70;;;;;;;;;;6046522;23;20410;-78
2023/03/24 09:10:02;;;;;;;3.33;2.30;;;;;;;;;;6046208;23;20026;-78
2023/03/24 09:12:40;;;;;;;4.03;2.38;;;;;;;;;;6046177;23;20027;-78
2023/03/24 09:15:09;;;;;;;3.00;2.08;;;;;;;;;;6045729;23;20051;-78
2023/03/24 09:17:43;;;;;;;2.38;1.75;;;;;;;;;;6048458;23;20381;-78
2023/03/24 09:20:17;;;;;;;2.58;1.90;;;;;;;;;;6048590;23;20030;-79
2023/03/24 09:22:48;;;;;;;2.90;1.67;;;;;;;;;;6048874;23;20360;-79
2023/03/24 09:25:24;;;;;;;4.22;2.38;;;;;;;;;;6071304;23;20102;-78
2023/03/24 09:27:52;;;;;;;1.92;1.67;;;;;;;;;;6047760;23;20049;-78
2023/03/24 09:30:23;;;;;;;2.08;1.60;;;;;;;;;;6048541;23;20037;-78
2023/03/24 09:32:57;;;;;;;1.90;1.48;;;;;;;;;;6070321;23;20022;-78
2023/03/24 09:35:28;;;;;;;2.17;1.73;;;;;;;;;;6048042;23;20062;-78
2023/03/24 09:38:00;;;;;;;2.88;1.77;;;;;;;;;;6047721;23;20461;-79
2023/03/24 09:40:35;;;;;;;1.75;1.65;;;;;;;;;;6047533;23;20034;-78
2023/03/24 09:43:22;;;;;;;3.45;2.17;;;;;;;;;;6051047;23;20022;-78
2023/03/24 09:45:54;;;;;;;3.40;1.77;;;;;;;;;;6072005;23;20491;-78
2023/03/24 09:48:54;;;;;;;2.22;1.77;;;;;;;;;;6047441;23;20018;-79
2023/03/24 09:51:23;;;;;;;2.40;1.58;;;;;;;;;;6067106;23;20413;-79
2023/03/24 09:54:18;;;;;;;2.55;1.63;;;;;;;;;;6071242;23;20473;-80
2023/03/24 09:56:55;;;;;;;3.60;1.83;;;;;;;;;;6071311;23;20026;-79
2023/03/24 09:59:35;;;;;;;2.80;1.40;;;;;;;;;;6050529;23;20030;-79
2023/03/24 10:02:20;;;;;;;1.95;1.67;;;;;;;;;;6071319;23;20022;-79
2023/03/24 10:05:11;;;;;;;3.63;1.67;;;;;;;;;;6075290;23;20081;-80
2023/03/24 10:07:51;;;;;;;2.38;1.50;;;;;;;;;;6048195;23;20034;-79
2023/03/24 10:11:00;;;;;;;1.55;1.42;;;;;;;;;;6049787;23;20097;-78
2023/03/24 10:13:47;;;;;;;2.60;1.40;;;;;;;;;;6079286;23;20014;-77
2023/03/24 10:16:19;;;;;;;3.33;1.70;;;;;;;;;;6070410;23;20106;-81
2023/03/24 10:19:01;;;;;;;2.25;1.50;;;;;;;;;;6086566;23;20050;-80
2023/03/24 10:22:12;;;;;;;1.38;1.20;;;;;;;;;;6071918;23;20047;-80
2023/03/24 10:25:03;;;;;;;2.05;1.42;;;;;;;;;;6076155;23;20027;-79
2023/03/24 10:27:54;;;;;;;1.48;1.35;;;;;;;;;;6080147;23;20058;-77
2023/03/24 10:30:42;;;;;;;2.03;1.80;;;;;;;;;;6075567;23;20034;-77
2023/03/24 10:33:16;;;;;;;3.92;1.50;;;;;;;;;;6099226;23;20014;-77
2023/03/24 10:36:01;;;;;;;2.97;1.30;;;;;;;;;;6071973;23;20014;-79
2023/03/24 10:38:28;;;;;;;1.50;1.35;;;;;;;;;;6097866;23;20058;-77
2023/03/24 10:41:00;;;;;;;2.72;1.42;;;;;;;;;;6075014;23;20054;-76
2023/03/24 10:43:38;;;;;;;2.60;1.50;;;;;;;;;;6075512;23;20006;-76
2023/03/24 10:46:18;;;;;;;4.57;1.40;;;;;;;;;;6075472;23;20015;-76
2023/03/24 10:49:19;;;;;;;1.98;1.27;;;;;;;;;;6075966;23;20011;-76
2023/03/24 10:52:01;;;;;;;;;;;;;;;;;;6077755;23;20030;-79
2023/03/24 10:54:30;;;;;;;1.48;0.85;;;;;;;;;;6127299;23;19924;-78
2023/03/24 10:57:18;;;;;;;2.33;0.90;;;;;;;;;;6049351;23;20101;-79
2023/03/24 11:00:09;;;;;;;1.10;1.00;;;;;;;;;;6048157;23;20022;-78
2023/03/24 11:02:41;;;;;;;0.80;0.75;;;;;;;;;;6047004;23;20022;-78
2023/03/24 11:05:09;;;;;;;1.10;0.80;;;;;;;;;;6045709;23;20070;-77
2023/03/24 11:07:45;;;;;;;1.85;1.35;;;;;;;;;;6069876;23;20034;-78
2023/03/24 11:10:15;;;;;;;0.82;0.82;;;;;;;;;;6045169;23;20022;-79
2023/03/24 11:12:53;;;;;;;2.05;0.98;;;;;;;;;;6068696;23;20023;-78
2023/03/24 11:15:30;;;;;;;1.63;0.90;;;;;;;;;;6068841;23;20037;-78
2023/03/24 11:18:10;;;;;;;0.70;0.70;;;;;;;;;;6045515;23;20109;-79
2023/03/24 11:20:43;;;;;;;0.82;0.70;;;;;;;;;;6068528;23;20018;-79
2023/03/24 11:23:13;;;;;;;1.33;0.80;;;;;;;;;;6067884;23;20019;-76
2023/03/24 11:25:52;;;;;;;1.55;0.73;;;;;;;;;;6069290;23;20026;-79
2023/03/24 11:28:26;;;;;;;1.60;1.10;;;;;;;;;;6045188;23;20034;-78
2023/03/24 11:30:54;;;;;;;0.70;0.65;;;;;;;;;;6067344;23;20049;-78
2023/03/24 11:33:24;;;;;;;3.42;0.90;;;;;;;;;;6044536;23;20062;-78
2023/03/24 11:36:29;;;;;;;0.70;0.70;;;;;;;;;;6070896;23;20022;-78
2023/03/24 11:39:13;;;;;;;0.65;0.65;;;;;;;;;;6072070;23;20030;-76
2023/03/24 11:41:51;;;;;;;1.60;0.80;;;;;;;;;;6095935;23;20009;-75
2023/03/24 11:44:21;;;;;;;1.45;0.80;;;;;;;;;;6057781;23;20117;-81
2023/03/24 11:47:20;;;;;;;0.70;0.70;;;;;;;;;;6036613;23;20774;-79
2023/03/24 11:50:09;;;;;;;0.60;0.60;;;;;;;;;;6058023;23;20046;-77
2023/03/24 11:53:06;;;;;;;0.55;0.55;;;;;;;;;;6067138;23;20041;-77
2023/03/24 11:56:04;;;;;;;1.58;0.52;;;;;;;;;;6043719;23;20338;-78
2023/03/24 11:58:39;;;;;;;2.17;0.80;;;;;;;;;;6009518;23;20029;-77
2023/03/24 12:01:23;;;;;;;0.80;0.50;;;;;;;;;;6068268;23;20026;-77
2023/03/24 12:04:13;;;;;;;1.23;0.63;;;;;;;;;;6067346;23;20035;-77
2023/03/24 12:07:06;;;;;;;0.50;0.50;;;;;;;;;;6068207;23;20361;-78
2023/03/24 12:09:58;;;;;;;0.57;0.55;;;;;;;;;;6067246;23;20022;-77
2023/03/24 12:12:39;;;;;;;2.10;0.45;;;;;;;;;;6044161;23;20034;-78
2023/03/24 12:15:35;;;;;;;1.17;0.60;;;;;;;;;;6068439;23;20027;-77
2023/03/24 12:18:22;;;;;;;1.77;0.70;;;;;;;;;;6067335;23;20070;-79
2023/03/24 12:21:25;;;;;;;0.75;0.50;;;;;;;;;;6045670;23;20029;-78
2023/03/24 12:24:21;;;;;;;0.50;0.50;;;;;;;;;;6068172;23;20026;-79
2023/03/24 12:27:11;;;;;;;0.40;0.40;;;;;;;;;;6072231;23;20731;-79
2023/03/24 12:30:24;;;;;;;0.50;0.40;;;;;;;;;;6069466;23;20030;-78
2023/03/24 12:33:03;;;;;;;0.40;0.40;;;;;;;;;;6070719;23;20061;-79
2023/03/24 12:36:13;;;;;;;0.40;0.40;;;;;;;;;;6073391;23;20027;-79
2023/03/24 12:38:50;;;;;;;0.40;0.38;;;;;;;;;;6026973;23;20306;-79
2023/03/24 12:41:43;;;;;;;0.82;0.40;;;;;;;;;;6072275;23;20489;-77
2023/03/24 12:44:19;;;;;;;0.30;0.30;;;;;;;;;;6070567;23;20019;-78
2023/03/24 12:47:17;;;;;;;0.50;0.40;;;;;;;;;;6069893;23;20401;-78
2023/03/24 12:50:11;;;;;;;0.70;0.38;;;;;;;;;;6070179;23;20029;-78
2023/03/24 12:52:50;;;;;;;1.33;0.32;;;;;;;;;;6072725;23;20288;-79
2023/03/24 12:56:08;;;;;;;0.40;0.40;;;;;;;;;;6075216;23;20022;-79
2023/03/24 12:58:56;;;;;;;0.57;0.50;;;;;;;;;;6070096;23;20026;-78
2023/03/24 13:01:25;;;;;;;1.77;0.50;;;;;;;;;;6071443;23;20282;-78
2023/03/24 13:03:57;;;;;;;0.20;0.20;;;;;;;;;;6071379;23;20026;-79
2023/03/24 13:06:31;;;;;;;0.30;0.30;;;;;;;;;;6048568;23;20101;-79
2023/03/24 13:09:17;;;;;;;0.88;0.35;;;;;;;;;;6072204;23;20025;-79
2023/03/24 13:11:57;;;;;;;0.90;0.43;;;;;;;;;;6071297;23;20038;-79
2023/03/24 13:14:46;;;;;;;0.60;0.40;;;;;;;;;;6049406;23;20030;-78
2023/03/24 13:17:25;;;;;;;0.60;0.30;;;;;;;;;;6047885;23;20022;-79
2023/03/24 13:19:53;;;;;;;0.40;0.30;;;;;;;;;;6048371;23;20026;-79
2023/03/24 13:22:24;;;;;;;0.50;0.28;;;;;;;;;;6049839;23;20026;-79
2023/03/24 13:24:53;;;;;;;1.45;0.30;;;;;;;;;;6048740;23;20026;-79
2023/03/24 13:27:38;;;;;;;0.22;0.22;;;;;;;;;;6048652;23;20105;-79
2023/03/24 13:30:14;;;;;;;1.75;0.38;;;;;;;;;;6048680;23;20033;-78
2023/03/24 13:32:51;;;;;;;2.33;0.57;;;;;;;;;;6072409;23;20483;-80
2023/03/24 13:35:57;;;;;;;0.77;0.60;;;;;;;;;;5971574;23;20087;-79
2023/03/24 13:38:58;;;;;;;2.72;0.63;;;;;;;;;;6052597;23;20023;-78
2023/03/24 13:41:27;;;;;;;2.30;0.70;;;;;;;;;;6022254;23;20034;-78
2023/03/24 13:44:16;;;;;;;2.95;0.73;;;;;;;;;;6065958;23;20019;-79
2023/03/24 13:47:21;;;;;;;2.10;0.82;;;;;;;;;;6063864;23;20030;-78
2023/03/24 13:50:10;;;;;;;0.95;0.50;;;;;;;;;;6053623;23;20057;-80
2023/03/24 13:52:44;;;;;;;3.47;1.00;;;;;;;;;;6063591;23;20031;-78
2023/03/24 13:55:29;;;;;;;3.10;1.67;;;;;;;;;;6068078;23;20027;-79
2023/03/24 13:58:00;;;;;;;3.50;0.90;;;;;;;;;;6067310;23;20029;-78
2023/03/24 14:00:29;;;;;;;1.58;0.75;;;;;;;;;;6067361;23;20042;-74
2023/03/24 14:03:36;;;;;;;3.05;1.15;;;;;;;;;;6066709;23;20050;-78
2023/03/24 14:06:07;;;;;;;4.18;0.80;;;;;;;;;;6045632;23;20102;-80
2023/03/24 14:08:51;;;;;;;1.75;0.80;;;;;;;;;;6068249;23;20027;-79
2023/03/24 14:11:36;;;;;;;2.65;1.00;;;;;;;;;;6092215;23;20709;-79
2023/03/24 14:14:16;;;;;;;2.60;0.77;;;;;;;;;;6089665;23;20473;-78
2023/03/24 14:16:56;;;;;;;2.03;0.73;;;;;;;;;;6067779;23;20065;-79
2023/03/24 14:19:41;;;;;;;2.40;0.80;;;;;;;;;;6066018;23;20042;-80
2023/03/24 14:22:20;;;;;;;1.48;0.63;;;;;;;;;;6064520;23;20037;-82
2023/03/24 14:25:03;;;;;;;4.57;0.88;;;;;;;;;;6063810;23;20098;-82
2023/03/24 14:27:36;;;;;;;1.52;0.90;;;;;;;;;;6071337;23;20034;-77
2023/03/24 14:30:12;;;;;;;2.72;0.38;;;;;;;;;;6074324;23;20023;-78
2023/03/24 14:32:45;;;;;;;2.60;0.50;;;;;;;;;;6091163;23;20047;-79
2023/03/24 14:35:43;;;;;;;1.20;0.50;;;;;;;;;;6066918;23;20054;-80
2023/03/24 14:38:21;;;;;;;1.05;0.95;;;;;;;;;;6061606;23;20023;-80
2023/03/24 14:40:56;;;;;;;1.20;0.75;;;;;;;;;;6064694;23;20030;-79
2023/03/24 14:43:29;;;;;;;1.80;0.75;;;;;;;;;;6065216;23;20753;-81
2023/03/24 14:46:05;;;;;;;1.05;0.70;;;;;;;;;;6064364;23;20033;-79
2023/03/24 14:49:11;;;;;;;1.13;0.73;;;;;;;;;;6067157;23;20034;-80
2023/03/24 14:51:54;;;;;;;1.05;0.73;;;;;;;;;;6036703;23;20015;-81
2023/03/24 14:54:29;;;;;;;0.77;0.70;;;;;;;;;;6094513;23;20027;-81
2023/03/24 14:57:01;;;;;;;2.55;1.00;;;;;;;;;;6093370;23;20023;-80
2023/03/24 15:00:11;;;;;;;3.95;1.15;;;;;;;;;;6068939;23;20046;-81
2023/03/24 15:02:40;;;;;;;1.52;0.80;;;;;;;;;;6068701;23;20094;-81
2023/03/24 15:05:17;;;;;;;2.17;0.77;;;;;;;;;;6075261;23;20125;-80
2023/03/24 15:08:02;;;;;;;1.27;0.75;;;;;;;;;;6089874;23;20030;-81
2023/03/24 15:10:50;;;;;;;2.00;0.50;;;;;;;;;;6060673;23;20014;-82
2023/03/24 15:13:36;;;;;;;1.20;0.70;;;;;;;;;;6065614;23;20027;-82
2023/03/24 15:16:17;;;;;;;1.63;0.88;;;;;;;;;;6090054;23;20023;-82
2023/03/24 15:19:19;;;;;;;1.05;0.77;;;;;;;;;;6066058;23;20031;-81
2023/03/24 15:22:08;;;;;;;1.98;0.90;;;;;;;;;;6061647;23;20026;-81
2023/03/24 15:24:41;;;;;;;0.98;0.63;;;;;;;;;;6065477;23;20027;-81
2023/03/24 15:27:27;;;;;;;2.05;0.50;;;;;;;;;;6065852;23;20072;-82
2023/03/24 15:30:00;;;;;;;4.25;0.82;;;;;;;;;;6066115;23;20023;-82
2023/03/24 15:32:38;;;;;;;2.10;1.23;;;;;;;;;;6065311;23;20088;-81
2023/03/24 15:35:07;;;;;;;1.60;0.50;;;;;;;;;;6066422;23;20461;-82
2023/03/24 15:37:39;;;;;;;2.05;0.80;;;;;;;;;;6066102;23;20026;-81
2023/03/24 15:40:31;;;;;;;0.93;0.80;;;;;;;;;;6066557;23;20022;-82
2023/03/24 15:43:08;;;;;;;2.15;0.63;;;;;;;;;;6061273;23;20022;-84